Terminal Aerodrome Forecast
Issued by NWS

Current Version | Previous Version | Text Only | Print | Product List | Glossary Off
Versions: 1 2 3 4 5 6 7 8 9 10 11 12 13 14 15 16 17 18 19

000
FTUS41 KILN 171139
TAFLUK
TAF
KLUK 171139Z 1712/1812 VRB03KT P6SM SCT130 OVC200
     FM171400 21009KT P6SM SCT200
     FM180000 22006KT P6SM FEW250
     FM180900 20006KT P6SM BKN200=

USA.gov is the U.S. government's official web portal to all federal, state and local government web resources and services.